sensor_id;sensor_type;location;lat;lon;timestamp;pressure;altitude;pressure_sealevel;temperature;humidity
48790;BME280;41718;51.980;5.734;2023-07-31T00:02:49;100753.47;;;14.05;100.00
48790;BME280;41718;51.980;5.734;2023-07-31T00:07:51;100738.75;;;14.09;100.00
48790;BME280;41718;51.980;5.734;2023-07-31T00:12:52;100724.00;;;14.08;100.00
48790;BME280;41718;51.980;5.734;2023-07-31T00:17:54;100720.53;;;14.11;100.00
48790;BME280;41718;51.980;5.734;2023-07-31T00:22:55;100713.59;;;14.19;100.00
48790;BME280;41718;51.980;5.734;2023-07-31T00:27:57;100701.38;;;14.33;100.00
48790;BME280;41718;51.980;5.734;2023-07-31T00:32:58;100677.97;;;14.38;100.00
48790;BME280;41718;51.980;5.734;2023-07-31T00:38:00;100674.47;;;14.54;100.00
48790;BME280;41718;51.980;5.734;2023-07-31T00:43:02;100674.41;;;14.66;100.00
48790;BME280;41718;51.980;5.734;2023-07-31T00:48:04;100668.25;;;14.78;100.00
48790;BME280;41718;51.980;5.734;2023-07-31T00:53:07;100656.88;;;14.94;100.00
48790;BME280;41718;51.980;5.734;2023-07-31T00:58:09;100651.56;;;15.08;100.00
48790;BME280;41718;51.980;5.734;2023-07-31T01:03:11;100649.75;;;15.22;100.00
48790;BME280;41718;51.980;5.734;2023-07-31T01:08:31;100648.81;;;15.31;100.00
48790;BME280;41718;51.980;5.734;2023-07-31T01:13:34;100653.97;;;15.35;100.00
48790;BME280;41718;51.980;5.734;2023-07-31T01:18:35;100647.91;;;15.38;100.00
48790;BME280;41718;51.980;5.734;2023-07-31T01:24:12;100645.28;;;15.38;100.00
48790;BME280;41718;51.980;5.734;2023-07-31T01:29:32;100643.56;;;15.35;100.00
48790;BME280;41718;51.980;5.734;2023-07-31T01:34:36;100637.47;;;15.35;100.00
48790;BME280;41718;51.980;5.734;2023-07-31T01:39:38;100634.88;;;15.38;100.00
48790;BME280;41718;51.980;5.734;2023-07-31T01:44:39;100632.25;;;15.36;100.00
48790;BME280;41718;51.980;5.734;2023-07-31T01:49:41;100623.56;;;15.37;100.00
48790;BME280;41718;51.980;5.734;2023-07-31T01:54:42;100633.09;;;15.37;100.00
48790;BME280;41718;51.980;5.734;2023-07-31T01:59:44;100627.03;;;15.36;100.00
48790;BME280;41718;51.980;5.734;2023-07-31T02:04:45;100629.63;;;15.36;100.00
48790;BME280;41718;51.980;5.734;2023-07-31T02:09:47;100632.25;;;15.36;100.00
48790;BME280;41718;51.980;5.734;2023-07-31T02:14:49;100637.53;;;15.32;100.00
48790;BME280;41718;51.980;5.734;2023-07-31T02:19:51;100631.44;;;15.30;100.00
48790;BME280;41718;51.980;5.734;2023-07-31T02:24:52;100625.38;;;15.28;100.00
48790;BME280;41718;51.980;5.734;2023-07-31T02:29:54;100615.84;;;15.24;100.00
48790;BME280;41718;51.980;5.734;2023-07-31T02:34:56;100624.56;;;15.23;100.00
48790;BME280;41718;51.980;5.734;2023-07-31T02:39:57;100598.50;;;15.20;100.00
48790;BME280;41718;51.980;5.734;2023-07-31T02:44:59;100601.97;;;15.22;100.00
48790;BME280;41718;51.980;5.734;2023-07-31T02:50:02;100601.09;;;15.20;100.00
48790;BME280;41718;51.980;5.734;2023-07-31T02:55:04;100607.16;;;15.25;100.00
48790;BME280;41718;51.980;5.734;2023-07-31T03:00:06;100604.59;;;15.22;100.00
48790;BME280;41718;51.980;5.734;2023-07-31T03:05:08;100597.66;;;15.21;100.00
48790;BME280;41718;51.980;5.734;2023-07-31T03:10:09;100601.13;;;15.18;100.00
48790;BME280;41718;51.980;5.734;2023-07-31T03:15:11;100614.13;;;15.20;100.00
48790;BME280;41718;51.980;5.734;2023-07-31T03:20:12;100608.91;;;15.20;100.00
48790;BME280;41718;51.980;5.734;2023-07-31T03:25:14;100609.81;;;15.17;100.00
48790;BME280;41718;51.980;5.734;2023-07-31T03:30:15;100604.63;;;15.17;100.00
48790;BME280;41718;51.980;5.734;2023-07-31T03:35:17;100615.03;;;15.14;100.00
48790;BME280;41718;51.980;5.734;2023-07-31T03:40:18;100615.09;;;15.09;100.00
48790;BME280;41718;51.980;5.734;2023-07-31T03:45:20;100606.44;;;15.06;100.00
48790;BME280;41718;51.980;5.734;2023-07-31T03:50:21;100613.41;;;15.04;100.00
48790;BME280;41718;51.980;5.734;2023-07-31T03:55:23;100611.63;;;15.07;100.00
48790;BME280;41718;51.980;5.734;2023-07-31T04:00:26;100620.31;;;15.08;100.00
48790;BME280;41718;51.980;5.734;2023-07-31T04:05:30;100617.72;;;15.06;100.00
48790;BME280;41718;51.980;5.734;2023-07-31T04:10:31;100618.59;;;15.05;100.00
48790;BME280;41718;51.980;5.734;2023-07-31T04:15:34;100609.91;;;15.05;100.00
48790;BME280;41718;51.980;5.734;2023-07-31T04:20:36;100611.66;;;15.03;100.00
48790;BME280;41718;51.980;5.734;2023-07-31T04:25:38;100603.00;;;15.01;100.00
48790;BME280;41718;51.980;5.734;2023-07-31T04:30:39;100605.63;;;14.99;100.00
48790;BME280;41718;51.980;5.734;2023-07-31T04:35:41;100603.81;;;15.09;100.00
48790;BME280;41718;51.980;5.734;2023-07-31T04:40:42;100600.38;;;15.05;100.00
48790;BME280;41718;51.980;5.734;2023-07-31T04:45:47;100594.25;;;15.11;100.00
48790;BME280;41718;51.980;5.734;2023-07-31T04:50:52;100601.19;;;15.07;100.00
48790;BME280;41718;51.980;5.734;2023-07-31T04:55:53;100605.53;;;15.10;100.00
48790;BME280;41718;51.980;5.734;2023-07-31T05:00:55;100604.69;;;15.09;100.00
48790;BME280;41718;51.980;5.734;2023-07-31T05:05:56;100604.72;;;15.03;100.00
48790;BME280;41718;51.980;5.734;2023-07-31T05:10:58;100609.88;;;15.08;100.00
48790;BME280;41718;51.980;5.734;2023-07-31T05:15:59;100602.13;;;15.00;100.00
48790;BME280;41718;51.980;5.734;2023-07-31T05:21:03;100602.09;;;15.06;100.00
48790;BME280;41718;51.980;5.734;2023-07-31T05:26:06;100600.41;;;15.01;100.00
48790;BME280;41718;51.980;5.734;2023-07-31T05:31:08;100606.50;;;14.97;100.00
48790;BME280;41718;51.980;5.734;2023-07-31T05:36:10;100604.78;;;14.91;100.00
48790;BME280;41718;51.980;5.734;2023-07-31T05:41:12;100606.56;;;14.92;100.00
48790;BME280;41718;51.980;5.734;2023-07-31T05:46:13;100606.63;;;14.81;100.00
48790;BME280;41718;51.980;5.734;2023-07-31T05:51:15;100604.03;;;14.77;100.00
48790;BME280;41718;51.980;5.734;2023-07-31T05:56:17;100588.38;;;14.83;100.00
48790;BME280;41718;51.980;5.734;2023-07-31T06:01:18;100572.72;;;14.84;100.00
48790;BME280;41718;51.980;5.734;2023-07-31T06:06:22;100556.22;;;14.87;100.00
48790;BME280;41718;51.980;5.734;2023-07-31T06:11:24;100548.34;;;14.93;100.00
48790;BME280;41718;51.980;5.734;2023-07-31T06:16:25;100535.28;;;14.99;100.00
48790;BME280;41718;51.980;5.734;2023-07-31T06:21:28;100530.03;;;15.04;100.00
48790;BME280;41718;51.980;5.734;2023-07-31T06:26:31;100535.19;;;15.10;100.00
48790;BME280;41718;51.980;5.734;2023-07-31T06:31:32;100523.03;;;15.07;100.00
48790;BME280;41718;51.980;5.734;2023-07-31T06:36:34;100512.53;;;15.17;100.00
48790;BME280;41718;51.980;5.734;2023-07-31T06:41:36;100516.81;;;15.24;100.00
48790;BME280;41718;51.980;5.734;2023-07-31T06:46:37;100501.19;;;15.22;100.00
48790;BME280;41718;51.980;5.734;2023-07-31T06:51:39;100479.44;;;15.25;100.00
48790;BME280;41718;51.980;5.734;2023-07-31T06:56:41;100486.31;;;15.33;100.00
48790;BME280;41718;51.980;5.734;2023-07-31T07:01:42;100488.06;;;15.30;100.00
48790;BME280;41718;51.980;5.734;2023-07-31T07:06:44;100476.72;;;15.38;100.00
48790;BME280;41718;51.980;5.734;2023-07-31T07:11:45;100474.91;;;15.42;100.00
48790;BME280;41718;51.980;5.734;2023-07-31T07:16:51;100472.31;;;15.44;100.00
48790;BME280;41718;51.980;5.734;2023-07-31T07:21:52;100466.16;;;15.48;100.00
48790;BME280;41718;51.980;5.734;2023-07-31T07:26:54;100470.44;;;15.55;100.00
48790;BME280;41718;51.980;5.734;2023-07-31T07:31:55;100459.22;;;15.47;100.00
48790;BME280;41718;51.980;5.734;2023-07-31T07:36:57;100465.28;;;15.47;100.00
48790;BME280;41718;51.980;5.734;2023-07-31T07:41:59;100465.22;;;15.53;100.00
48790;BME280;41718;51.980;5.734;2023-07-31T07:47:00;100467.84;;;15.55;100.00
48790;BME280;41718;51.980;5.734;2023-07-31T07:52:03;100459.13;;;15.56;100.00
48790;BME280;41718;51.980;5.734;2023-07-31T07:57:04;100456.44;;;15.62;100.00
48790;BME280;41718;51.980;5.734;2023-07-31T08:02:06;100448.66;;;15.60;100.00
48790;BME280;41718;51.980;5.734;2023-07-31T08:07:07;100446.88;;;15.66;100.00
48790;BME280;41718;51.980;5.734;2023-07-31T08:12:09;100445.09;;;15.68;100.00
48790;BME280;41718;51.980;5.734;2023-07-31T08:17:10;100444.09;;;15.78;100.00
48790;BME280;41718;51.980;5.734;2023-07-31T08:22:12;100433.63;;;15.81;100.00
48790;BME280;41718;51.980;5.734;2023-07-31T08:27:13;100434.44;;;15.84;100.00
48790;BME280;41718;51.980;5.734;2023-07-31T08:32:15;100430.03;;;15.89;100.00
48790;BME280;41718;51.980;5.734;2023-07-31T08:37:17;100423.88;;;15.95;100.00
48790;BME280;41718;51.980;5.734;2023-07-31T08:42:18;100420.31;;;15.99;100.00
48790;BME280;41718;51.980;5.734;2023-07-31T08:47:20;100409.03;;;15.97;100.00
48790;BME280;41718;51.980;5.734;2023-07-31T08:52:23;100406.34;;;16.03;100.00
48790;BME280;41718;51.980;5.734;2023-07-31T08:57:25;100403.69;;;16.05;100.00
48790;BME280;41718;51.980;5.734;2023-07-31T09:02:34;100398.38;;;16.11;100.00
48790;BME280;41718;51.980;5.734;2023-07-31T09:07:36;100402.91;;;16.01;100.00
48790;BME280;41718;51.980;5.734;2023-07-31T09:12:39;100402.84;;;16.04;100.00
48790;BME280;41718;51.980;5.734;2023-07-31T09:17:40;100393.25;;;16.05;100.00
48790;BME280;41718;51.980;5.734;2023-07-31T09:22:42;100397.53;;;16.10;100.00
48790;BME280;41718;51.980;5.734;2023-07-31T09:27:50;100396.69;;;16.08;100.00
48790;BME280;41718;51.980;5.734;2023-07-31T09:33:00;100393.22;;;16.08;100.00
48790;BME280;41718;51.980;5.734;2023-07-31T09:38:07;100393.19;;;16.09;100.00
48790;BME280;41718;51.980;5.734;2023-07-31T09:43:11;100381.59;;;16.29;100.00
48790;BME280;41718;51.980;5.734;2023-07-31T09:48:15;100372.03;;;16.28;100.00
48790;BME280;41718;51.980;5.734;2023-07-31T09:53:28;100370.78;;;16.50;100.00
48790;BME280;41718;51.980;5.734;2023-07-31T09:58:33;100370.59;;;16.61;100.00
48790;BME280;41718;51.980;5.734;2023-07-31T10:03:36;100375.06;;;16.54;100.00
48790;BME280;41718;51.980;5.734;2023-07-31T10:08:39;100369.88;;;16.53;100.00
48790;BME280;41718;51.980;5.734;2023-07-31T10:13:41;100367.19;;;16.56;100.00
48790;BME280;41718;51.980;5.734;2023-07-31T10:18:43;100375.81;;;16.62;100.00
48790;BME280;41718;51.980;5.734;2023-07-31T10:23:46;100381.75;;;16.72;100.00
48790;BME280;41718;51.980;5.734;2023-07-31T10:28:50;100385.25;;;16.71;100.00
48790;BME280;41718;51.980;5.734;2023-07-31T10:33:53;100379.88;;;16.80;100.00
48790;BME280;41718;51.980;5.734;2023-07-31T10:38:55;100383.16;;;16.90;100.00
48790;BME280;41718;51.980;5.734;2023-07-31T10:43:59;100389.28;;;16.90;100.00
48790;BME280;41718;51.980;5.734;2023-07-31T10:49:02;100383.19;;;16.88;100.00
48790;BME280;41718;51.980;5.734;2023-07-31T10:54:12;100388.38;;;16.90;100.00
48790;BME280;41718;51.980;5.734;2023-07-31T10:59:13;100383.09;;;16.94;100.00
48790;BME280;41718;51.980;5.734;2023-07-31T11:04:22;100384.94;;;16.88;100.00
48790;BME280;41718;51.980;5.734;2023-07-31T11:09:31;100382.06;;;17.02;100.00
48790;BME280;41718;51.980;5.734;2023-07-31T11:14:34;100378.59;;;17.01;100.00
48790;BME280;41718;51.980;5.734;2023-07-31T11:19:37;100384.06;;;16.90;100.00
48790;BME280;41718;51.980;5.734;2023-07-31T11:24:41;100395.38;;;16.89;100.00
48790;BME280;41718;51.980;5.734;2023-07-31T11:29:43;100379.69;;;16.89;100.00
48790;BME280;41718;51.980;5.734;2023-07-31T11:34:54;100383.06;;;16.96;100.00
48790;BME280;41718;51.980;5.734;2023-07-31T11:39:59;100387.16;;;17.09;100.00
48790;BME280;41718;51.980;5.734;2023-07-31T11:45:05;100391.34;;;17.18;100.00
48790;BME280;41718;51.980;5.734;2023-07-31T11:50:09;100384.47;;;17.12;100.00
48790;BME280;41718;51.980;5.734;2023-07-31T11:55:12;100380.06;;;17.16;100.00
48790;BME280;41718;51.980;5.734;2023-07-31T12:00:15;100381.69;;;17.21;100.00
48790;BME280;41718;51.980;5.734;2023-07-31T12:05:17;100385.81;;;17.33;100.00
48790;BME280;41718;51.980;5.734;2023-07-31T12:15:33;100383.88;;;17.41;100.00
48790;BME280;41718;51.980;5.734;2023-07-31T12:20:35;100393.63;;;17.35;100.00
48790;BME280;41718;51.980;5.734;2023-07-31T12:25:38;100395.41;;;17.33;100.00
48790;BME280;41718;51.980;5.734;2023-07-31T12:30:40;100400.69;;;17.31;100.00
48790;BME280;41718;51.980;5.734;2023-07-31T12:35:45;100395.41;;;17.33;100.00
48790;BME280;41718;51.980;5.734;2023-07-31T12:40:47;100385.91;;;17.29;100.00
48790;BME280;41718;51.980;5.734;2023-07-31T12:45:48;100375.31;;;17.35;100.00
48790;BME280;41718;51.980;5.734;2023-07-31T12:50:51;100373.41;;;17.43;100.00
48790;BME280;41718;51.980;5.734;2023-07-31T12:55:53;100375.31;;;17.35;100.00
48790;BME280;41718;51.980;5.734;2023-07-31T13:00:54;100375.94;;;17.46;100.00
48790;BME280;41718;51.980;5.734;2023-07-31T13:05:56;100379.69;;;17.36;100.00
48790;BME280;41718;51.980;5.734;2023-07-31T13:10:58;100365.06;;;17.24;100.00
48790;BME280;41718;51.980;5.734;2023-07-31T13:15:59;100357.38;;;17.16;100.00
48790;BME280;41718;51.980;5.734;2023-07-31T13:21:01;100365.97;;;17.23;100.00
48790;BME280;41718;51.980;5.734;2023-07-31T13:26:03;100360.66;;;17.28;100.00
48790;BME280;41718;51.980;5.734;2023-07-31T13:31:10;100351.91;;;17.30;100.00
48790;BME280;41718;51.980;5.734;2023-07-31T13:36:21;100343.97;;;17.33;100.00
48790;BME280;41718;51.980;5.734;2023-07-31T13:41:22;100348.06;;;17.45;100.00
48790;BME280;41718;51.980;5.734;2023-07-31T13:46:24;100346.75;;;17.26;100.00
48790;BME280;41718;51.980;5.734;2023-07-31T13:51:27;100343.34;;;17.22;100.00
48790;BME280;41718;51.980;5.734;2023-07-31T13:56:29;100345.09;;;17.21;100.00
48790;BME280;41718;51.980;5.734;2023-07-31T14:01:31;100348.59;;;17.20;100.00
48790;BME280;41718;51.980;5.734;2023-07-31T14:06:32;100333.78;;;17.21;100.00
48790;BME280;41718;51.980;5.734;2023-07-31T14:11:34;100337.19;;;17.25;100.00
48790;BME280;41718;51.980;5.734;2023-07-31T14:16:38;100333.47;;;17.35;100.00
48790;BME280;41718;51.980;5.734;2023-07-31T14:21:40;100330.00;;;17.34;100.00
48790;BME280;41718;51.980;5.734;2023-07-31T14:26:42;100336.72;;;17.46;100.00
48790;BME280;41718;51.980;5.734;2023-07-31T14:31:44;100343.84;;;17.39;100.00
48790;BME280;41718;51.980;5.734;2023-07-31T14:36:46;100336.75;;;17.44;100.00
48790;BME280;41718;51.980;5.734;2023-07-31T14:41:48;100329.00;;;17.40;100.00
48790;BME280;41718;51.980;5.734;2023-07-31T14:46:49;100324.94;;;17.27;100.00
48790;BME280;41718;51.980;5.734;2023-07-31T14:51:51;100319.63;;;17.31;100.00
48790;BME280;41718;51.980;5.734;2023-07-31T14:56:52;100315.38;;;17.26;100.00
48790;BME280;41718;51.980;5.734;2023-07-31T15:01:54;100305.84;;;17.23;100.00
48790;BME280;41718;51.980;5.734;2023-07-31T15:06:56;100300.59;;;17.25;100.00
48790;BME280;41718;51.980;5.734;2023-07-31T15:11:57;100291.84;;;17.26;100.00
48790;BME280;41718;51.980;5.734;2023-07-31T15:16:59;100289.19;;;17.27;100.00
48790;BME280;41718;51.980;5.734;2023-07-31T15:22:01;100269.22;;;17.23;100.00
48790;BME280;41718;51.980;5.734;2023-07-31T15:27:03;100261.47;;;17.20;100.00
48790;BME280;41718;51.980;5.734;2023-07-31T15:32:05;100253.72;;;17.15;100.00
48790;BME280;41718;51.980;5.734;2023-07-31T15:37:07;100243.34;;;17.11;100.00
48790;BME280;41718;51.980;5.734;2023-07-31T15:42:08;100225.88;;;17.13;100.00
48790;BME280;41718;51.980;5.734;2023-07-31T15:47:10;100233.00;;;17.06;100.00
48790;BME280;41718;51.980;5.734;2023-07-31T15:52:12;100217.25;;;17.09;100.00
48790;BME280;41718;51.980;5.734;2023-07-31T15:57:13;100214.56;;;17.14;100.00
48790;BME280;41718;51.980;5.734;2023-07-31T16:02:15;100197.25;;;17.08;100.00
48790;BME280;41718;51.980;5.734;2023-07-31T16:07:16;100187.66;;;17.07;100.00
48790;BME280;41718;51.980;5.734;2023-07-31T16:12:18;100191.19;;;17.06;100.00
48790;BME280;41718;51.980;5.734;2023-07-31T16:17:19;100193.78;;;17.06;100.00
48790;BME280;41718;51.980;5.734;2023-07-31T16:22:21;100165.28;;;16.97;100.00
48790;BME280;41718;51.980;5.734;2023-07-31T16:27:23;100168.03;;;16.91;100.00
48790;BME280;41718;51.980;5.734;2023-07-31T16:32:29;100167.22;;;16.87;100.00
48790;BME280;41718;51.980;5.734;2023-07-31T16:37:31;100153.59;;;16.73;100.00
48790;BME280;41718;51.980;5.734;2023-07-31T16:42:33;100145.78;;;16.72;100.00
48790;BME280;41718;51.980;5.734;2023-07-31T16:47:35;100137.94;;;16.72;100.00
48790;BME280;41718;51.980;5.734;2023-07-31T16:52:36;100117.97;;;16.69;100.00
48790;BME280;41718;51.980;5.734;2023-07-31T16:57:38;100113.72;;;16.63;100.00
48790;BME280;41718;51.980;5.734;2023-07-31T17:02:40;100108.47;;;16.65;100.00
48790;BME280;41718;51.980;5.734;2023-07-31T17:07:42;100090.28;;;16.60;100.00
48790;BME280;41718;51.980;5.734;2023-07-31T17:12:43;100094.59;;;16.61;100.00
48790;BME280;41718;51.980;5.734;2023-07-31T17:17:45;100084.19;;;16.60;100.00
48790;BME280;41718;51.980;5.734;2023-07-31T17:22:46;100095.47;;;16.62;100.00
48790;BME280;41718;51.980;5.734;2023-07-31T17:27:49;100078.06;;;16.62;100.00
48790;BME280;41718;51.980;5.734;2023-07-31T17:32:53;100068.47;;;16.63;100.00
48790;BME280;41718;51.980;5.734;2023-07-31T17:37:55;100063.41;;;16.55;100.00
48790;BME280;41718;51.980;5.734;2023-07-31T17:42:59;100054.66;;;16.56;100.00
48790;BME280;41718;51.980;5.734;2023-07-31T17:48:01;100053.84;;;16.54;100.00
48790;BME280;41718;51.980;5.734;2023-07-31T17:53:02;100050.28;;;16.58;100.00
48790;BME280;41718;51.980;5.734;2023-07-31T17:58:08;100049.44;;;16.58;100.00
48790;BME280;41718;51.980;5.734;2023-07-31T18:03:09;100041.59;;;16.58;100.00
48790;BME280;41718;51.980;5.734;2023-07-31T18:08:14;100045.16;;;16.54;100.00
48790;BME280;41718;51.980;5.734;2023-07-31T18:13:15;100033.06;;;16.51;100.00
48790;BME280;41718;51.980;5.734;2023-07-31T18:18:17;100019.00;;;16.55;100.00
48790;BME280;41718;51.980;5.734;2023-07-31T18:23:19;100031.22;;;16.55;100.00
48790;BME280;41718;51.980;5.734;2023-07-31T18:28:20;100026.06;;;16.52;100.00
48790;BME280;41718;51.980;5.734;2023-07-31T18:33:22;100015.69;;;16.49;100.00
48790;BME280;41718;51.980;5.734;2023-07-31T18:38:24;100007.81;;;16.50;100.00
48790;BME280;41718;51.980;5.734;2023-07-31T18:43:26;100008.69;;;16.51;100.00
48790;BME280;41718;51.980;5.734;2023-07-31T18:48:27;100016.47;;;16.52;100.00
48790;BME280;41718;51.980;5.734;2023-07-31T18:53:29;100044.34;;;16.52;100.00
48790;BME280;41718;51.980;5.734;2023-07-31T18:58:30;100046.13;;;16.50;100.00
48790;BME280;41718;51.980;5.734;2023-07-31T19:03:32;100028.69;;;16.50;100.00
48790;BME280;41718;51.980;5.734;2023-07-31T19:08:33;100009.59;;;16.48;100.00
48790;BME280;41718;51.980;5.734;2023-07-31T19:13:37;99989.72;;;16.42;100.00
48790;BME280;41718;51.980;5.734;2023-07-31T19:18:39;99983.72;;;16.37;100.00
48790;BME280;41718;51.980;5.734;2023-07-31T19:23:41;99985.59;;;16.32;100.00
48790;BME280;41718;51.980;5.734;2023-07-31T19:28:42;99962.28;;;16.25;100.00
48790;BME280;41718;51.980;5.734;2023-07-31T19:33:44;99961.56;;;16.16;100.00
48790;BME280;41718;51.980;5.734;2023-07-31T19:38:46;99962.63;;;16.09;100.00
48790;BME280;41718;51.980;5.734;2023-07-31T19:43:48;99967.88;;;16.08;100.00
48790;BME280;41718;51.980;5.734;2023-07-31T19:48:49;99966.88;;;16.13;100.00
48790;BME280;41718;51.980;5.734;2023-07-31T19:53:51;99976.38;;;16.17;100.00
48790;BME280;41718;51.980;5.734;2023-07-31T19:58:53;99970.41;;;16.11;100.00
48790;BME280;41718;51.980;5.734;2023-07-31T20:03:54;99964.53;;;16.01;100.00
48790;BME280;41718;51.980;5.734;2023-07-31T20:08:56;99970.66;;;16.00;100.00
48790;BME280;41718;51.980;5.734;2023-07-31T20:14:04;99962.97;;;15.94;100.00
48790;BME280;41718;51.980;5.734;2023-07-31T20:19:06;99960.59;;;15.83;100.00
48790;BME280;41718;51.980;5.734;2023-07-31T20:24:09;99957.97;;;15.83;100.00
48790;BME280;41718;51.980;5.734;2023-07-31T20:29:10;99952.81;;;15.80;100.00
48790;BME280;41718;51.980;5.734;2023-07-31T20:34:12;99947.72;;;15.74;100.00
48790;BME280;41718;51.980;5.734;2023-07-31T20:39:14;99943.38;;;15.75;100.00
48790;BME280;41718;51.980;5.734;2023-07-31T20:44:16;99938.19;;;15.73;100.00
48790;BME280;41718;51.980;5.734;2023-07-31T20:49:17;99940.00;;;15.70;100.00
48790;BME280;41718;51.980;5.734;2023-07-31T20:54:21;99942.72;;;15.62;100.00
48790;BME280;41718;51.980;5.734;2023-07-31T20:59:24;99921.91;;;15.60;100.00
48790;BME280;41718;51.980;5.734;2023-07-31T21:04:28;99920.13;;;15.64;100.00
48790;BME280;41718;51.980;5.734;2023-07-31T21:09:33;99897.59;;;15.58;100.00
48790;BME280;41718;51.980;5.734;2023-07-31T21:14:35;99893.31;;;15.56;100.00
48790;BME280;41718;51.980;5.734;2023-07-31T21:19:36;99878.59;;;15.53;100.00
48790;BME280;41718;51.980;5.734;2023-07-31T21:24:40;99887.41;;;15.48;100.00
48790;BME280;41718;51.980;5.734;2023-07-31T21:29:42;99887.44;;;15.46;100.00
48790;BME280;41718;51.980;5.734;2023-07-31T21:34:44;99880.47;;;15.47;100.00
48790;BME280;41718;51.980;5.734;2023-07-31T21:39:45;99867.59;;;15.39;100.00
48790;BME280;41718;51.980;5.734;2023-07-31T21:44:47;99844.09;;;15.41;100.00
48790;BME280;41718;51.980;5.734;2023-07-31T21:49:49;99832.00;;;15.38;100.00
48790;BME280;41718;51.980;5.734;2023-07-31T21:54:51;99835.47;;;15.37;100.00
48790;BME280;41718;51.980;5.734;2023-07-31T21:59:53;99845.19;;;15.32;100.00
48790;BME280;41718;51.980;5.734;2023-07-31T22:04:56;99842.41;;;15.40;100.00
48790;BME280;41718;51.980;5.734;2023-07-31T22:09:57;99819.97;;;15.32;100.00
48790;BME280;41718;51.980;5.734;2023-07-31T22:15:02;99822.59;;;15.31;100.00
48790;BME280;41718;51.980;5.734;2023-07-31T22:20:04;99813.91;;;15.30;100.00
48790;BME280;41718;51.980;5.734;2023-07-31T22:25:06;99801.78;;;15.29;100.00
48790;BME280;41718;51.980;5.734;2023-07-31T22:30:08;99798.31;;;15.29;100.00
48790;BME280;41718;51.980;5.734;2023-07-31T22:35:12;99794.03;;;15.26;100.00
48790;BME280;41718;51.980;5.734;2023-07-31T22:40:14;99799.16;;;15.29;100.00
48790;BME280;41718;51.980;5.734;2023-07-31T22:45:17;99793.97;;;15.29;100.00
48790;BME280;41718;51.980;5.734;2023-07-31T22:50:19;99777.41;;;15.32;100.00
48790;BME280;41718;51.980;5.734;2023-07-31T22:55:20;99768.69;;;15.33;100.00
48790;BME280;41718;51.980;5.734;2023-07-31T23:00:23;99754.81;;;15.32;100.00
48790;BME280;41718;51.980;5.734;2023-07-31T23:05:25;99753.91;;;15.33;100.00
48790;BME280;41718;51.980;5.734;2023-07-31T23:10:26;99754.72;;;15.35;100.00
48790;BME280;41718;51.980;5.734;2023-07-31T23:15:31;99745.19;;;15.34;100.00
48790;BME280;41718;51.980;5.734;2023-07-31T23:20:32;99738.19;;;15.38;100.00
48790;BME280;41718;51.980;5.734;2023-07-31T23:25:35;99736.44;;;15.37;100.00
48790;BME280;41718;51.980;5.734;2023-07-31T23:30:37;99736.34;;;15.43;100.00
48790;BME280;41718;51.980;5.734;2023-07-31T23:35:38;99725.16;;;15.38;100.00
48790;BME280;41718;51.980;5.734;2023-07-31T23:40:40;99726.81;;;15.41;100.00
48790;BME280;41718;51.980;5.734;2023-07-31T23:45:41;99722.41;;;15.44;100.00
48790;BME280;41718;51.980;5.734;2023-07-31T23:50:43;99705.06;;;15.43;100.00
48790;BME280;41718;51.980;5.734;2023-07-31T23:55:45;99722.50;;;15.40;100.00
